Pulaski, Mississippi
Current Conditions -  °F | °C
As of 12:54 PM on Thursday 18 Dec 2014 (Local Time) from KJAN Reporting Station
Overcast Overcast  
Wind Chill: 46°   Ceiling: 3400
Heat Index: 48°   Visibility: 10mi
Dew Point: 44°   Wind: 5mph
Humidity: 86%   Direction: 110°ESE
Pressure: 30.16"   Gusts: NA
Location:  32.27°N, 89.6°W
Report Text: KJAN 181854Z 11004KT 10SM OVC034 09/07 A3016 RMK AO2 SLP214 T00890067
Loading
Personal Weather Stations






























Interactive Weather Map New forecast layout! Learn more

10-Day Weather Forecast

Advertisements
Track Severe Weather on mobile